Time;durP1;ratioP1;P1;durP2;ratioP2;P2;SDS_P1;SDS_P2;PMS_P1;PMS_P2;Temp;Humidity;BMP_temperature;BMP_pressure;BME280_temperature;BME280_humidity;BME280_pressure;Samples;Min_cycle;Max_cycle;Signal;HPM_P1;HPM_P2
2022/09/11 00:01:32;;;;;;;;;;;17.20;90.10;;;;;;5045048;28;19924;-65
2022/09/11 00:03:57;;;;;;;;;;;17.20;90.10;;;;;;5057752;28;20036;-65
2022/09/11 00:06:24;;;;;;;;;;;17.20;90.10;;;;;;5065869;28;19913;-65
2022/09/11 00:08:53;;;;;;;;;;;17.20;90.20;;;;;;5065873;28;19909;-65
2022/09/11 00:11:20;;;;;;;;;;;17.20;90.20;;;;;;5065991;28;19912;-65
2022/09/11 00:13:46;;;;;;;;;;;17.20;90.10;;;;;;5066756;28;19912;-65
2022/09/11 00:16:17;;;;;;;;;;;17.20;90.20;;;;;;5066347;28;19908;-65
2022/09/11 00:18:43;;;;;;;;;;;17.10;90.20;;;;;;5066153;28;20617;-65
2022/09/11 00:21:08;;;;;;;;;;;17.20;90.20;;;;;;5048147;28;19913;-65
2022/09/11 00:23:34;;;;;;;;;;;17.10;90.20;;;;;;5066700;28;19999;-65
2022/09/11 00:26:01;;;;;;;;;;;17.20;90.20;;;;;;5066263;28;20618;-65
2022/09/11 00:28:26;;;;;;;;;;;17.10;90.20;;;;;;5066556;28;19919;-65
2022/09/11 00:30:56;;;;;;;;;;;17.10;90.20;;;;;;5065923;28;19909;-65
2022/09/11 00:33:22;;;;;;;;;;;17.10;90.20;;;;;;5062320;28;19913;-65
2022/09/11 00:35:52;;;;;;;;;;;17.10;90.20;;;;;;5065550;28;19917;-65
2022/09/11 00:38:19;;;;;;;;;;;17.10;90.20;;;;;;5066374;28;19916;-65
2022/09/11 00:40:49;;;;;;;;;;;17.10;90.20;;;;;;5066110;28;19913;-65
2022/09/11 00:43:15;;;;;;;;;;;17.10;90.20;;;;;;5065847;28;19920;-65
2022/09/11 00:45:42;;;;;;;;;;;17.10;90.20;;;;;;5066257;28;19959;-65
2022/09/11 00:48:07;;;;;;;;;;;17.00;90.30;;;;;;5065675;28;19916;-65
2022/09/11 00:50:33;;;;;;;;;;;17.00;90.20;;;;;;5065583;28;20328;-65
2022/09/11 00:53:01;;;;;;;;;;;17.00;90.20;;;;;;5065422;28;20037;-65
2022/09/11 00:55:31;;;;;;;;;;;17.00;90.30;;;;;;5066172;28;19912;-65
2022/09/11 00:57:58;;;;;;;;;;;17.00;90.30;;;;;;5065679;28;20404;-65
2022/09/11 01:00:24;;;;;;;;;;;17.00;90.30;;;;;;5065730;28;19935;-65
2022/09/11 01:02:50;;;;;;;;;;;17.00;90.30;;;;;;5063744;28;20472;-65
2022/09/11 01:05:17;;;;;;;;;;;17.00;90.30;;;;;;5065282;28;19920;-65
2022/09/11 01:07:44;;;;;;;;;;;17.00;90.30;;;;;;5065115;28;19909;-65
2022/09/11 01:10:10;;;;;;;;;;;17.00;90.30;;;;;;5065443;28;20338;-65
2022/09/11 01:12:35;;;;;;;;;;;16.90;90.30;;;;;;5065269;28;20005;-65
2022/09/11 01:15:02;;;;;;;;;;;16.90;90.30;;;;;;5065662;28;20003;-65
2022/09/11 01:17:43;;;;;;;;;;;16.90;90.30;;;;;;5065597;28;20001;-65
2022/09/11 01:20:25;;;;;;;;;;;16.90;90.30;;;;;;5065803;28;19969;-65
2022/09/11 01:23:15;;;;;;;;;;;16.90;90.30;;;;;;5065018;28;19943;-65
2022/09/11 01:25:40;;;;;;;;;;;16.90;90.30;;;;;;5064867;28;20492;-65
2022/09/11 01:28:12;;;;;;;;;;;16.90;90.30;;;;;;5064857;28;19916;-65
2022/09/11 01:30:45;;;;;;;;;;;16.90;90.30;;;;;;5064877;28;19916;-65
2022/09/11 01:33:11;;;;;;;;;;;16.90;90.30;;;;;;5047271;28;19958;-65
2022/09/11 01:35:36;;;;;;;;;;;16.90;90.60;;;;;;5065125;28;20404;-65
2022/09/11 01:38:07;;;;;;;;;;;16.90;90.20;;;;;;5064945;28;19920;-65
2022/09/11 01:40:39;;;;;;;;;;;16.90;90.30;;;;;;5065209;28;20766;-65
2022/09/11 01:43:07;;;;;;;;;;;16.90;90.30;;;;;;5046309;28;19939;-65
2022/09/11 01:45:35;;;;;;;;;;;16.90;90.30;;;;;;5047338;28;20290;-65
2022/09/11 01:48:01;;;;;;;;;;;16.90;90.30;;;;;;5065684;28;20053;-65
2022/09/11 01:50:29;;;;;;;;;;;16.90;90.30;;;;;;5065227;28;20011;-65
2022/09/11 01:52:59;;;;;;;;;;;16.90;90.30;;;;;;5064770;28;20632;-65
2022/09/11 01:55:28;;;;;;;;;;;16.90;90.30;;;;;;5063123;28;19946;-65
2022/09/11 01:58:06;;;;;;;;;;;16.90;90.30;;;;;;5065526;28;19913;-65
2022/09/11 02:00:34;;;;;;;;;;;16.90;90.20;;;;;;5064140;28;20633;-65
2022/09/11 02:03:21;;;;;;;;;;;16.90;90.20;;;;;;5060754;28;19920;-65
2022/09/11 02:05:56;;;;;;;;;;;16.90;90.20;;;;;;5064840;28;19916;-65
2022/09/11 02:08:27;;;;;;;;;;;16.90;90.20;;;;;;5064638;28;19970;-65
2022/09/11 02:10:55;;;;;;;;;;;16.90;90.20;;;;;;5064318;28;19966;-65
2022/09/11 02:13:20;;;;;;;;;;;16.90;90.30;;;;;;5067252;28;19924;-65
2022/09/11 02:15:52;;;;;;;;;;;16.90;90.20;;;;;;5068870;28;19912;-65
2022/09/11 02:18:17;;;;;;;;;;;16.90;90.20;;;;;;5069068;28;19912;-65
2022/09/11 02:20:46;;;;;;;;;;;16.90;90.20;;;;;;5068422;28;19958;-65
2022/09/11 02:23:12;;;;;;;;;;;16.90;90.20;;;;;;5068628;28;19959;-65
2022/09/11 02:25:38;;;;;;;;;;;16.90;90.50;;;;;;5068513;28;20011;-65
2022/09/11 02:28:04;;;;;;;;;;;16.90;90.20;;;;;;5067811;28;20004;-65
2022/09/11 02:30:30;;;;;;;;;;;16.90;90.20;;;;;;5069146;28;20003;-65
2022/09/11 02:32:55;;;;;;;;;;;16.90;90.20;;;;;;5068221;28;19958;-65
2022/09/11 02:35:24;;;;;;;;;;;16.90;90.20;;;;;;5067905;28;20353;-65
2022/09/11 02:37:50;;;;;;;;;;;17.00;90.20;;;;;;5068822;28;19912;-65
2022/09/11 02:40:15;;;;;;;;;;;16.90;90.20;;;;;;5068265;28;20658;-65
2022/09/11 02:42:41;;;;;;;;;;;17.00;90.10;;;;;;5068107;28;19920;-65
2022/09/11 02:45:15;;;;;;;;;;;16.90;90.10;;;;;;5067629;28;20506;-65
2022/09/11 02:47:41;;;;;;;;;;;16.90;90.20;;;;;;5068752;28;20399;-65
2022/09/11 02:50:20;;;;;;;;;;;16.90;90.20;;;;;;5068462;28;20003;-65
2022/09/11 02:52:49;;;;;;;;;;;16.90;90.20;;;;;;5068246;28;20459;-65
2022/09/11 02:55:34;;;;;;;;;;;16.90;90.20;;;;;;5068300;28;20336;-65
2022/09/11 02:58:07;;;;;;;;;;;17.00;90.20;;;;;;5053486;28;19924;-65
2022/09/11 03:00:34;;;;;;;;;;;17.00;90.20;;;;;;5067558;28;20285;-65
2022/09/11 03:02:59;;;;;;;;;;;17.00;90.20;;;;;;5057727;28;19913;-65
2022/09/11 03:05:27;;;;;;;;;;;16.90;90.10;;;;;;5067918;28;19961;-65
2022/09/11 03:07:52;;;;;;;;;;;16.90;90.20;;;;;;5067938;28;19908;-65
2022/09/11 03:10:18;;;;;;;;;;;16.90;90.20;;;;;;5067946;28;19913;-65
2022/09/11 03:12:43;;;;;;;;;;;16.90;90.20;;;;;;5067929;28;19982;-65
2022/09/11 03:15:09;;;;;;;;;;;16.90;90.20;;;;;;5067778;28;19917;-65
2022/09/11 03:17:35;;;;;;;;;;;16.90;90.20;;;;;;5068219;28;20486;-65
2022/09/11 03:20:01;;;;;;;;;;;17.00;90.20;;;;;;5060842;28;19912;-65
2022/09/11 03:22:26;;;;;;;;;;;17.00;90.20;;;;;;5067490;28;19920;-65
2022/09/11 03:24:52;;;;;;;;;;;16.90;90.20;;;;;;5066905;28;20304;-65
2022/09/11 03:27:17;;;;;;;;;;;17.00;90.30;;;;;;5067644;28;19948;-65
2022/09/11 03:29:43;;;;;;;;;;;16.90;90.20;;;;;;5067684;28;19913;-65
2022/09/11 03:32:09;;;;;;;;;;;17.00;90.30;;;;;;5067011;28;19923;-65
2022/09/11 03:34:35;;;;;;;;;;;16.90;90.20;;;;;;5066977;28;19957;-65
2022/09/11 03:37:01;;;;;;;;;;;17.00;90.60;;;;;;5049408;28;19920;-65
2022/09/11 03:39:26;;;;;;;;;;;16.90;90.20;;;;;;5067586;28;20133;-65
2022/09/11 03:41:53;;;;;;;;;;;17.00;90.30;;;;;;5048334;28;20606;-65
2022/09/11 03:44:18;;;;;;;;;;;16.90;90.20;;;;;;5067084;28;19920;-65
2022/09/11 03:46:44;;;;;;;;;;;17.00;90.20;;;;;;5067147;28;20307;-65
2022/09/11 03:49:09;;;;;;;;;;;17.00;90.20;;;;;;5048830;28;20706;-65
2022/09/11 03:51:36;;;;;;;;;;;17.00;90.20;;;;;;5066367;28;19919;-65
2022/09/11 03:54:02;;;;;;;;;;;17.00;90.30;;;;;;5066918;28;20299;-65
2022/09/11 03:56:27;;;;;;;;;;;17.00;90.30;;;;;;5066989;28;19922;-65
2022/09/11 03:58:55;;;;;;;;;;;17.00;90.30;;;;;;5066970;28;19912;-65
2022/09/11 04:01:21;;;;;;;;;;;17.00;90.20;;;;;;5066321;28;19913;-65
2022/09/11 04:03:47;;;;;;;;;;;17.00;90.30;;;;;;5061560;28;19915;-65
2022/09/11 04:06:12;;;;;;;;;;;17.00;90.20;;;;;;5066967;28;19917;-65
2022/09/11 04:08:38;;;;;;;;;;;17.00;90.20;;;;;;5066405;28;19913;-65
2022/09/11 04:11:04;;;;;;;;;;;17.00;90.50;;;;;;5066838;28;19912;-65
2022/09/11 04:13:34;;;;;;;;;;;17.00;90.30;;;;;;5066610;28;19917;-65
2022/09/11 04:16:01;;;;;;;;;;;17.00;90.30;;;;;;5066520;28;19962;-65
2022/09/11 04:18:27;;;;;;;;;;;17.00;90.30;;;;;;5066698;28;19919;-65
2022/09/11 04:20:53;;;;;;;;;;;17.00;90.30;;;;;;5066308;28;19912;-65
2022/09/11 04:23:18;;;;;;;;;;;17.00;90.30;;;;;;5066491;28;19920;-65
2022/09/11 04:25:44;;;;;;;;;;;17.00;90.20;;;;;;5065897;28;19916;-65
2022/09/11 04:28:09;;;;;;;;;;;17.00;90.20;;;;;;5066382;28;20078;-65
2022/09/11 04:30:38;;;;;;;;;;;17.00;90.30;;;;;;5065954;28;19923;-65
2022/09/11 04:33:04;;;;;;;;;;;17.00;90.20;;;;;;5065659;28;19954;-65
2022/09/11 04:35:30;;;;;;;;;;;17.00;90.20;;;;;;5066139;28;19912;-65
2022/09/11 04:37:56;;;;;;;;;;;17.00;90.30;;;;;;5066543;28;19912;-65
2022/09/11 04:40:21;;;;;;;;;;;17.00;90.30;;;;;;5066543;28;20323;-65
2022/09/11 04:42:46;;;;;;;;;;;17.00;90.30;;;;;;5065105;28;20425;-65
2022/09/11 04:45:12;;;;;;;;;;;17.00;90.20;;;;;;5066471;28;19953;-65
2022/09/11 04:47:37;;;;;;;;;;;17.00;90.20;;;;;;5065894;28;20389;-65
2022/09/11 04:50:03;;;;;;;;;;;17.00;90.30;;;;;;5065644;28;20689;-65
2022/09/11 04:52:29;;;;;;;;;;;17.00;90.20;;;;;;5065474;28;19969;-65
2022/09/11 04:54:54;;;;;;;;;;;17.00;90.20;;;;;;5065607;28;19927;-65
2022/09/11 04:57:20;;;;;;;;;;;17.00;90.20;;;;;;5065892;28;19920;-65
2022/09/11 04:59:47;;;;;;;;;;;17.00;90.20;;;;;;5065742;28;20011;-65
2022/09/11 05:02:13;;;;;;;;;;;17.00;90.30;;;;;;5065563;28;19919;-65
2022/09/11 05:04:40;;;;;;;;;;;17.00;90.30;;;;;;5065868;28;19920;-65
2022/09/11 05:07:05;;;;;;;;;;;17.00;90.30;;;;;;5065672;28;19916;-65
2022/09/11 05:09:31;;;;;;;;;;;17.00;90.30;;;;;;5065898;28;19963;-65
2022/09/11 05:11:56;;;;;;;;;;;17.00;90.20;;;;;;5064815;28;19966;-65
2022/09/11 05:14:22;;;;;;;;;;;17.00;90.30;;;;;;5065600;28;20453;-65
2022/09/11 05:16:47;;;;;;;;;;;17.00;90.30;;;;;;5065040;28;19970;-65
2022/09/11 05:19:13;;;;;;;;;;;17.00;90.20;;;;;;5065451;28;19913;-65
2022/09/11 05:21:38;;;;;;;;;;;17.00;90.20;;;;;;5065332;28;19919;-65
2022/09/11 05:24:04;;;;;;;;;;;17.00;90.30;;;;;;5065727;28;19912;-65
2022/09/11 05:26:31;;;;;;;;;;;17.00;90.30;;;;;;5065488;28;19924;-65
2022/09/11 05:28:58;;;;;;;;;;;17.00;90.30;;;;;;5065253;28;19916;-65
2022/09/11 05:31:24;;;;;;;;;;;17.00;90.30;;;;;;5065385;28;19913;-65
2022/09/11 05:33:51;;;;;;;;;;;17.00;90.30;;;;;;5062870;28;19917;-65
2022/09/11 05:36:16;;;;;;;;;;;17.00;90.30;;;;;;5046888;28;20687;-65
2022/09/11 05:38:42;;;;;;;;;;;17.00;90.30;;;;;;5065581;28;19920;-65
2022/09/11 05:41:10;;;;;;;;;;;17.00;90.20;;;;;;5065249;28;19912;-65
2022/09/11 05:43:36;;;;;;;;;;;17.00;90.30;;;;;;5065386;28;19928;-65
2022/09/11 05:46:02;;;;;;;;;;;17.00;90.30;;;;;;5064770;28;19921;-65
2022/09/11 05:48:28;;;;;;;;;;;17.00;90.30;;;;;;5068375;28;20446;-65
2022/09/11 05:50:54;;;;;;;;;;;17.10;90.30;;;;;;5068765;28;19939;-65
2022/09/11 05:53:20;;;;;;;;;;;17.00;90.30;;;;;;5069574;28;19916;-65
2022/09/11 05:55:46;;;;;;;;;;;17.00;90.30;;;;;;5069535;28;19912;-65
2022/09/11 05:58:12;;;;;;;;;;;17.00;90.20;;;;;;5069190;28;19969;-65
2022/09/11 06:00:39;;;;;;;;;;;17.10;90.30;;;;;;5069212;28;19916;-65
2022/09/11 06:03:06;;;;;;;;;;;17.10;90.20;;;;;;5061471;28;20285;-65
2022/09/11 06:05:32;;;;;;;;;;;17.10;90.30;;;;;;5068819;28;20527;-65
2022/09/11 06:07:57;;;;;;;;;;;17.10;90.30;;;;;;5068839;28;19912;-65
2022/09/11 06:10:23;;;;;;;;;;;17.10;90.20;;;;;;5069231;28;20019;-65
2022/09/11 06:12:48;;;;;;;;;;;17.10;90.50;;;;;;5069453;28;20384;-65
2022/09/11 06:15:14;;;;;;;;;;;17.10;90.30;;;;;;5069394;28;19912;-65
2022/09/11 06:17:40;;;;;;;;;;;17.10;90.30;;;;;;5069340;28;19995;-65
2022/09/11 06:20:05;;;;;;;;;;;17.10;90.30;;;;;;5067270;28;20629;-65
2022/09/11 06:22:33;;;;;;;;;;;17.10;90.30;;;;;;5067846;28;19912;-65
2022/09/11 06:24:58;;;;;;;;;;;17.10;90.30;;;;;;5063547;28;19916;-65
2022/09/11 06:27:24;;;;;;;;;;;17.10;90.30;;;;;;5068960;28;20421;-65
2022/09/11 06:29:49;;;;;;;;;;;17.20;90.30;;;;;;5068747;28;19912;-65
2022/09/11 06:32:15;;;;;;;;;;;17.20;90.30;;;;;;5068700;28;20514;-65
2022/09/11 06:34:40;;;;;;;;;;;17.20;90.30;;;;;;5067492;28;20345;-65
2022/09/11 06:37:06;;;;;;;;;;;17.20;90.20;;;;;;5067749;28;19920;-65
2022/09/11 06:39:33;;;;;;;;;;;17.20;90.20;;;;;;5068049;28;20015;-65
2022/09/11 06:41:58;;;;;;;;;;;17.20;90.20;;;;;;5068168;28;19935;-65
2022/09/11 06:44:25;;;;;;;;;;;17.20;90.20;;;;;;5064654;28;19920;-65
2022/09/11 06:46:51;;;;;;;;;;;17.20;90.20;;;;;;5066275;28;19917;-65
2022/09/11 06:49:16;;;;;;;;;;;17.20;90.30;;;;;;5067789;28;19970;-65
2022/09/11 06:51:42;;;;;;;;;;;17.30;90.20;;;;;;5067665;28;19924;-65
2022/09/11 06:54:07;;;;;;;;;;;17.30;90.50;;;;;;5068475;28;19912;-65
2022/09/11 06:56:33;;;;;;;;;;;17.30;90.20;;;;;;5068204;28;20015;-65
2022/09/11 06:58:58;;;;;;;;;;;17.30;90.10;;;;;;5067560;28;20268;-65
2022/09/11 07:01:24;;;;;;;;;;;17.30;90.20;;;;;;5067983;28;20377;-65
2022/09/11 07:03:51;;;;;;;;;;;17.40;90.20;;;;;;5065505;28;19999;-65
2022/09/11 07:06:21;;;;;;;;;;;17.40;90.20;;;;;;5066975;28;20336;-65
2022/09/11 07:08:51;;;;;;;;;;;17.40;90.20;;;;;;5067823;28;19952;-65
2022/09/11 07:11:17;;;;;;;;;;;17.40;90.20;;;;;;5065187;28;19966;-65
2022/09/11 07:13:43;;;;;;;;;;;17.40;90.20;;;;;;5067216;28;19912;-65
2022/09/11 07:16:09;;;;;;;;;;;17.40;90.20;;;;;;5065780;28;19989;-65
2022/09/11 07:18:35;;;;;;;;;;;17.40;90.20;;;;;;5068123;28;19912;-65
2022/09/11 07:21:20;;;;;;;;;;;17.40;90.10;;;;;;5067289;28;19927;-65
2022/09/11 07:23:47;;;;;;;;;;;17.40;90.20;;;;;;5067812;28;19913;-65
2022/09/11 07:26:12;;;;;;;;;;;17.50;90.20;;;;;;5047460;28;20266;-65
2022/09/11 07:28:38;;;;;;;;;;;17.50;90.20;;;;;;5067523;28;19920;-65
2022/09/11 07:31:11;;;;;;;;;;;17.50;90.20;;;;;;5066945;28;19913;-65
2022/09/11 07:33:37;;;;;;;;;;;17.50;90.20;;;;;;5062521;28;20014;-65
2022/09/11 07:36:09;;;;;;;;;;;17.50;90.30;;;;;;5067333;28;19919;-65
2022/09/11 07:38:34;;;;;;;;;;;17.50;90.20;;;;;;5048423;28;19908;-65
2022/09/11 07:41:00;;;;;;;;;;;17.50;90.10;;;;;;5066333;28;19912;-65
2022/09/11 07:43:26;;;;;;;;;;;17.50;90.20;;;;;;5065509;28;19931;-65
2022/09/11 07:45:52;;;;;;;;;;;17.50;90.20;;;;;;5066340;28;19913;-65
2022/09/11 07:48:17;;;;;;;;;;;17.50;90.30;;;;;;5067467;28;19912;-65
2022/09/11 07:50:53;;;;;;;;;;;17.60;90.30;;;;;;5066874;28;19913;-65
2022/09/11 07:53:18;;;;;;;;;;;17.60;90.20;;;;;;5067105;28;20668;-65
2022/09/11 07:55:44;;;;;;;;;;;17.60;90.10;;;;;;5067212;28;19912;-65
2022/09/11 07:58:10;;;;;;;;;;;17.60;90.10;;;;;;5066719;28;19916;-65
2022/09/11 08:00:35;;;;;;;;;;;17.70;90.10;;;;;;5048312;28;19936;-65
2022/09/11 08:03:01;;;;;;;;;;;17.70;90.10;;;;;;5064028;28;19916;-65
2022/09/11 08:05:26;;;;;;;;;;;17.70;90.10;;;;;;5066904;28;19969;-65
2022/09/11 08:07:52;;;;;;;;;;;17.70;90.10;;;;;;5048739;28;20825;-65
2022/09/11 08:10:18;;;;;;;;;;;17.80;90.10;;;;;;5066008;28;19913;-65
2022/09/11 08:12:45;;;;;;;;;;;17.70;90.10;;;;;;5065956;28;19920;-65
2022/09/11 08:15:10;;;;;;;;;;;17.80;90.10;;;;;;5066323;28;19920;-65
2022/09/11 08:17:36;;;;;;;;;;;17.80;90.10;;;;;;5064643;28;19916;-65
2022/09/11 08:20:01;;;;;;;;;;;17.80;90.10;;;;;;5066197;28;20376;-65
2022/09/11 08:22:27;;;;;;;;;;;17.80;90.00;;;;;;5066862;28;19912;-65
2022/09/11 08:24:52;;;;;;;;;;;17.80;89.90;;;;;;5063733;28;19921;-65
2022/09/11 08:27:18;;;;;;;;;;;17.80;90.00;;;;;;5062929;28;19955;-65
2022/09/11 08:29:44;;;;;;;;;;;17.90;90.00;;;;;;5066603;28;19962;-65
2022/09/11 08:32:12;;;;;;;;;;;17.90;89.90;;;;;;5065885;28;19912;-65
2022/09/11 08:34:37;;;;;;;;;;;17.90;89.90;;;;;;5063908;28;19923;-65
2022/09/11 08:37:03;;;;;;;;;;;17.90;89.80;;;;;;5065036;28;19912;-65
2022/09/11 08:39:28;;;;;;;;;;;17.90;89.90;;;;;;5064004;28;20007;-64
2022/09/11 08:41:58;;;;;;;;;;;18.00;89.90;;;;;;5063078;28;20602;-65
2022/09/11 08:44:27;;;;;;;;;;;18.00;89.80;;;;;;5063747;28;20329;-65
2022/09/11 08:46:56;;;;;;;;;;;18.00;89.80;;;;;;5064720;28;19975;-65
2022/09/11 08:49:34;;;;;;;;;;;18.10;89.80;;;;;;5065028;28;20720;-65
2022/09/11 08:52:01;;;;;;;;;;;18.10;89.70;;;;;;5047541;28;20445;-65
2022/09/11 08:54:28;;;;;;;;;;;18.10;89.60;;;;;;5064916;28;20050;-65
2022/09/11 08:57:06;;;;;;;;;;;18.10;89.60;;;;;;5065444;28;19912;-65
2022/09/11 08:59:50;;;;;;;;;;;18.10;89.60;;;;;;5065726;28;20445;-65
2022/09/11 09:02:18;;;;;;;;;;;18.10;89.60;;;;;;5064543;28;19913;-65
2022/09/11 09:05:03;;;;;;;;;;;18.10;89.60;;;;;;5063002;28;19924;-65
2022/09/11 09:07:47;;;;;;;;;;;18.20;90.10;;;;;;5065614;28;19913;-65
2022/09/11 09:10:31;;;;;;;;;;;18.20;89.60;;;;;;5064460;28;19916;-65
2022/09/11 09:13:05;;;;;;;;;;;18.20;89.60;;;;;;5064903;28;20003;-65
2022/09/11 09:15:49;;;;;;;;;;;18.20;89.50;;;;;;5064735;28;20468;-65
2022/09/11 09:18:15;;;;;;;;;;;18.20;89.50;;;;;;5064681;28;20510;-65
2022/09/11 09:20:48;;;;;;;;;;;18.20;89.50;;;;;;5064585;28;19924;-65
2022/09/11 09:23:13;;;;;;;;;;;18.20;89.50;;;;;;5063767;28;19955;-65
2022/09/11 09:25:40;;;;;;;;;;;18.30;89.30;;;;;;5064956;28;20015;-65
2022/09/11 09:28:26;;;;;;;;;;;18.30;89.30;;;;;;5065673;28;19947;-65
2022/09/11 09:30:58;;;;;;;;;;;18.30;89.30;;;;;;5047035;28;19919;-65
2022/09/11 09:33:26;;;;;;;;;;;18.40;89.20;;;;;;5064779;28;19912;-65
2022/09/11 09:35:53;;;;;;;;;;;18.40;89.00;;;;;;5065559;28;19919;-65
2022/09/11 09:38:25;;;;;;;;;;;18.40;89.00;;;;;;5044648;28;19919;-65
2022/09/11 09:40:51;;;;;;;;;;;18.50;88.90;;;;;;5063598;28;19923;-65
2022/09/11 09:43:29;;;;;;;;;;;18.60;88.80;;;;;;5064279;28;19920;-65
2022/09/11 09:45:55;;;;;;;;;;;18.70;88.40;;;;;;5064900;28;19927;-65
2022/09/11 09:48:20;;;;;;;;;;;18.80;88.30;;;;;;5063969;28;19916;-65
2022/09/11 09:50:46;;;;;;;;;;;18.80;88.70;;;;;;5063626;28;19962;-65
2022/09/11 09:53:19;;;;;;;;;;;18.80;88.30;;;;;;5064660;28;19913;-65
2022/09/11 09:55:46;;;;;;;;;;;18.90;88.30;;;;;;5065013;28;20003;-65
2022/09/11 09:58:12;;;;;;;;;;;18.90;88.30;;;;;;5065282;28;19916;-65
2022/09/11 10:00:39;;;;;;;;;;;18.90;88.40;;;;;;5063803;28;19913;-65
2022/09/11 10:03:18;;;;;;;;;;;19.00;88.00;;;;;;5058783;28;19919;-65
2022/09/11 10:05:43;;;;;;;;;;;19.00;88.00;;;;;;5064900;28;19920;-66
2022/09/11 10:08:30;;;;;;;;;;;19.10;87.80;;;;;;5065130;28;20335;-65
2022/09/11 10:11:00;;;;;;;;;;;19.20;87.50;;;;;;5063857;28;19923;-65
2022/09/11 10:13:27;;;;;;;;;;;19.20;87.30;;;;;;5064872;28;19913;-65
2022/09/11 10:16:00;;;;;;;;;;;19.20;87.10;;;;;;5064440;28;19947;-66
2022/09/11 10:18:28;;;;;;;;;;;19.30;87.20;;;;;;5064788;28;19912;-65
2022/09/11 10:21:12;;;;;;;;;;;19.30;87.00;;;;;;5063589;28;20387;-65
2022/09/11 10:23:58;;;;;;;;;;;19.30;86.90;;;;;;5063654;28;19935;-65
2022/09/11 10:26:24;;;;;;;;;;;19.40;86.90;;;;;;5056892;28;20461;-65
2022/09/11 10:28:50;;;;;;;;;;;19.40;87.10;;;;;;5064439;28;19920;-65
2022/09/11 10:31:17;;;;;;;;;;;19.40;86.90;;;;;;5063366;28;19912;-65
2022/09/11 10:33:57;;;;;;;;;;;19.40;86.90;;;;;;5060410;28;19912;-66
2022/09/11 10:36:24;;;;;;;;;;;19.50;86.80;;;;;;5065365;28;19960;-66
2022/09/11 10:38:50;;;;;;;;;;;19.50;86.70;;;;;;5068153;28;19909;-66
2022/09/11 10:41:18;;;;;;;;;;;19.50;86.80;;;;;;5049366;28;20313;-66
2022/09/11 10:43:43;;;;;;;;;;;19.50;86.80;;;;;;5066398;28;19983;-65
2022/09/11 10:46:21;;;;;;;;;;;19.60;87.30;;;;;;5067524;28;20636;-66
2022/09/11 10:49:10;;;;;;;;;;;19.60;86.80;;;;;;5067612;28;19916;-66
2022/09/11 10:51:39;;;;;;;;;;;19.70;86.50;;;;;;5048495;28;20380;-65
2022/09/11 10:54:05;;;;;;;;;;;19.80;86.20;;;;;;5066391;28;19917;-65
2022/09/11 10:56:33;;;;;;;;;;;19.80;86.10;;;;;;5065541;28;19922;-65
2022/09/11 10:59:01;;;;;;;;;;;19.80;86.00;;;;;;5066800;28;19912;-66
2022/09/11 11:01:26;;;;;;;;;;;19.90;86.40;;;;;;5067302;28;20457;-65
2022/09/11 11:03:54;;;;;;;;;;;19.90;86.00;;;;;;5066686;28;19923;-65
2022/09/11 11:06:31;;;;;;;;;;;19.90;86.10;;;;;;5067848;28;19921;-65
2022/09/11 11:09:17;;;;;;;;;;;20.00;85.90;;;;;;5067110;28;19919;-65
2022/09/11 11:11:57;;;;;;;;;;;20.00;86.20;;;;;;5061684;28;19912;-65
2022/09/11 11:14:42;;;;;;;;;;;20.00;85.70;;;;;;5067172;28;19912;-66
2022/09/11 11:17:08;;;;;;;;;;;20.00;86.00;;;;;;5067099;28;19919;-66
2022/09/11 11:19:40;;;;;;;;;;;20.10;85.40;;;;;;5066889;28;19913;-65
2022/09/11 11:22:08;;;;;;;;;;;20.20;85.90;;;;;;5067255;28;19920;-66
2022/09/11 11:24:34;;;;;;;;;;;20.20;85.20;;;;;;5067196;28;19936;-65
2022/09/11 11:27:18;;;;;;;;;;;20.30;84.90;;;;;;5067023;28;19912;-66
2022/09/11 11:29:49;;;;;;;;;;;20.40;85.00;;;;;;5066872;28;19970;-65
2022/09/11 11:32:26;;;;;;;;;;;20.40;84.70;;;;;;5066729;28;19917;-65
2022/09/11 11:35:00;;;;;;;;;;;20.50;84.60;;;;;;5067084;28;19912;-65
2022/09/11 11:37:35;;;;;;;;;;;20.50;84.70;;;;;;5067085;28;19912;-65
2022/09/11 11:40:20;;;;;;;;;;;20.50;84.80;;;;;;5067062;28;19916;-65
2022/09/11 11:42:51;;;;;;;;;;;20.60;84.40;;;;;;5066167;28;19920;-65
2022/09/11 11:45:20;;;;;;;;;;;20.60;84.60;;;;;;5065715;28;19962;-65
2022/09/11 11:47:46;;;;;;;;;;;20.60;84.40;;;;;;5066798;28;19919;-65
2022/09/11 11:50:32;;;;;;;;;;;20.70;84.30;;;;;;5066050;28;19912;-65
2022/09/11 11:52:57;;;;;;;;;;;20.70;84.20;;;;;;5066580;28;19913;-66
2022/09/11 11:55:29;;;;;;;;;;;20.60;84.30;;;;;;5065415;28;19922;-65
2022/09/11 11:57:57;;;;;;;;;;;20.70;84.20;;;;;;5066789;28;19959;-65
2022/09/11 12:00:23;;;;;;;;;;;20.70;84.00;;;;;;5066554;28;20704;-66
2022/09/11 12:02:56;;;;;;;;;;;20.70;84.00;;;;;;5064919;28;19917;-66
2022/09/11 12:05:24;;;;;;;;;;;20.80;84.10;;;;;;5066353;28;19985;-65
2022/09/11 12:07:50;;;;;;;;;;;20.80;83.80;;;;;;5065956;28;20345;-66
2022/09/11 12:10:21;;;;;;;;;;;20.90;84.20;;;;;;5066251;28;19919;-66
2022/09/11 12:12:49;;;;;;;;;;;20.90;83.90;;;;;;5066107;28;19919;-65
2022/09/11 12:15:19;;;;;;;;;;;20.80;83.80;;;;;;5066280;28;20015;-66
2022/09/11 12:17:48;;;;;;;;;;;20.80;84.00;;;;;;5065803;28;19970;-66
2022/09/11 12:20:27;;;;;;;;;;;20.90;84.10;;;;;;5065979;28;19913;-65
2022/09/11 12:22:53;;;;;;;;;;;20.90;83.90;;;;;;5065559;28;19908;-65
2022/09/11 12:25:18;;;;;;;;;;;21.00;84.10;;;;;;5047505;28;20645;-65
2022/09/11 12:27:52;;;;;;;;;;;20.90;83.90;;;;;;5064170;28;19973;-66
2022/09/11 12:30:20;;;;;;;;;;;21.00;84.40;;;;;;5066230;28;19913;-66
2022/09/11 12:32:50;;;;;;;;;;;20.90;84.00;;;;;;5064617;28;20010;-66
2022/09/11 12:35:18;;;;;;;;;;;21.00;84.00;;;;;;5047466;28;19916;-66
2022/09/11 12:37:45;;;;;;;;;;;21.00;83.60;;;;;;5065900;28;20230;-66
2022/09/11 12:40:17;;;;;;;;;;;21.00;83.60;;;;;;5065929;28;19924;-65
2022/09/11 12:42:53;;;;;;;;;;;21.00;83.40;;;;;;5063643;28;19913;-66
2022/09/11 12:45:29;;;;;;;;;;;21.10;83.30;;;;;;5064742;28;19927;-66
2022/09/11 12:48:01;;;;;;;;;;;21.20;83.00;;;;;;5066202;28;19919;-66
2022/09/11 12:50:27;;;;;;;;;;;21.20;82.80;;;;;;5066409;28;19924;-66
2022/09/11 12:52:56;;;;;;;;;;;21.20;82.90;;;;;;5062505;28;20387;-66
2022/09/11 12:55:34;;;;;;;;;;;21.20;83.20;;;;;;5062416;28;20331;-66
2022/09/11 12:58:02;;;;;;;;;;;21.20;83.20;;;;;;5065921;28;19912;-66
2022/09/11 13:00:42;;;;;;;;;;;21.30;83.20;;;;;;5066148;28;19919;-66
2022/09/11 13:03:19;;;;;;;;;;;21.30;83.40;;;;;;5064934;28;19913;-66
2022/09/11 13:05:52;;;;;;;;;;;21.30;83.20;;;;;;5064467;28;19947;-66
2022/09/11 13:08:21;;;;;;;;;;;21.40;82.90;;;;;;5065723;28;19921;-66
2022/09/11 13:10:46;;;;;;;;;;;21.50;82.50;;;;;;5065531;28;19917;-66
2022/09/11 13:13:31;;;;;;;;;;;21.50;82.30;;;;;;5047662;28;19989;-66
2022/09/11 13:15:57;;;;;;;;;;;21.50;82.50;;;;;;5066217;28;20506;-66
2022/09/11 13:18:28;;;;;;;;;;;21.50;82.70;;;;;;5066490;28;20358;-66
2022/09/11 13:20:59;;;;;;;;;;;21.50;82.80;;;;;;5048033;28;20002;-66
2022/09/11 13:23:25;;;;;;;;;;;21.50;82.80;;;;;;5047632;28;19912;-66
2022/09/11 13:25:52;;;;;;;;;;;21.50;83.10;;;;;;5065772;28;20334;-66
2022/09/11 13:28:19;;;;;;;;;;;21.50;82.90;;;;;;5066368;28;20357;-66
2022/09/11 13:30:55;;;;;;;;;;;21.50;82.80;;;;;;5065932;28;19919;-66
2022/09/11 13:33:22;;;;;;;;;;;21.60;82.70;;;;;;5060612;28;19925;-66
2022/09/11 13:35:48;;;;;;;;;;;21.60;82.30;;;;;;5047773;28;20384;-66
2022/09/11 13:38:17;;;;;;;;;;;21.70;82.30;;;;;;5064811;28;19912;-66
2022/09/11 13:40:56;;;;;;;;;;;21.70;82.30;;;;;;5064931;28;19912;-65
2022/09/11 13:43:43;;;;;;;;;;;21.70;82.10;;;;;;5065662;28;19995;-66
2022/09/11 13:46:09;;;;;;;;;;;21.70;82.40;;;;;;5064992;28;19924;-66
2022/09/11 13:48:35;;;;;;;;;;;21.80;82.30;;;;;;5065314;28;19999;-66
2022/09/11 13:51:03;;;;;;;;;;;21.80;82.20;;;;;;5064257;28;20624;-66
2022/09/11 13:53:29;;;;;;;;;;;21.80;81.80;;;;;;5065093;28;19916;-66
2022/09/11 13:55:55;;;;;;;;;;;21.90;82.00;;;;;;5064719;28;19919;-66
2022/09/11 13:58:29;;;;;;;;;;;21.90;81.80;;;;;;5058794;28;19920;-66
2022/09/11 14:00:55;;;;;;;;;;;22.00;81.70;;;;;;5064146;28;19919;-66
2022/09/11 14:03:23;;;;;;;;;;;22.00;81.50;;;;;;5064231;28;19917;-66
2022/09/11 14:05:53;;;;;;;;;;;22.00;81.40;;;;;;5064298;28;20328;-66
2022/09/11 14:08:27;;;;;;;;;;;22.10;81.40;;;;;;5065053;28;20384;-65
2022/09/11 14:10:55;;;;;;;;;;;22.10;81.40;;;;;;5068516;28;19970;-66
2022/09/11 14:13:21;;;;;;;;;;;22.10;81.20;;;;;;5068077;28;19917;-66
2022/09/11 14:15:58;;;;;;;;;;;22.20;81.30;;;;;;5068696;28;20364;-66
2022/09/11 14:18:23;;;;;;;;;;;22.20;81.40;;;;;;5068428;28;19913;-66
2022/09/11 14:20:49;;;;;;;;;;;22.20;81.30;;;;;;5067462;28;19919;-66
2022/09/11 14:23:17;;;;;;;;;;;22.20;81.50;;;;;;5067828;28;19912;-66
2022/09/11 14:26:01;;;;;;;;;;;22.30;81.10;;;;;;5067854;28;19959;-66